Terminal Aerodrome Forecast
Issued by NWS

Home | Current Version | Previous Version | Text Only | Print | Product List | Glossary On
Versions: 1 2 3 4 5 6 7 8 9 10 11 12 13 14 15 16 17 18 19 20 21 22
000
FTUS41 KRLX 180800 AAA
TAFCKB
TAF AMD
KCKB 180842Z 1809/1906 00000KT 1/2SM FG OVC001
     FM181400 00000KT 4SM BR SCT030
     FM181500 00000KT P6SM SCT050
     FM182200 VRB03KT P6SM SCT140=

USA.gov is the U.S. government's official web portal to all federal, state and local government web resources and services.